sensor_id;sensor_type;location;lat;lon;timestamp;temperature;humidity
51557;DHT22;38766;53.194;5.532;2022-10-16T00:01:09;13.60;99.90
51557;DHT22;38766;53.194;5.532;2022-10-16T00:03:37;13.60;99.90
51557;DHT22;38766;53.194;5.532;2022-10-16T00:06:03;13.60;99.90
51557;DHT22;38766;53.194;5.532;2022-10-16T00:08:29;13.60;99.90
51557;DHT22;38766;53.194;5.532;2022-10-16T00:11:02;13.50;99.90
51557;DHT22;38766;53.194;5.532;2022-10-16T00:13:29;13.50;99.90
51557;DHT22;38766;53.194;5.532;2022-10-16T00:15:56;13.50;99.90
51557;DHT22;38766;53.194;5.532;2022-10-16T00:18:23;13.50;99.90
51557;DHT22;38766;53.194;5.532;2022-10-16T00:20:49;13.50;99.90
51557;DHT22;38766;53.194;5.532;2022-10-16T00:23:15;13.60;99.90
51557;DHT22;38766;53.194;5.532;2022-10-16T00:25:40;13.60;99.90
51557;DHT22;38766;53.194;5.532;2022-10-16T00:28:06;13.50;99.90
51557;DHT22;38766;53.194;5.532;2022-10-16T00:30:31;13.40;99.90
51557;DHT22;38766;53.194;5.532;2022-10-16T00:32:57;13.30;99.90
51557;DHT22;38766;53.194;5.532;2022-10-16T00:35:23;13.40;99.90
51557;DHT22;38766;53.194;5.532;2022-10-16T00:37:48;13.40;99.90
51557;DHT22;38766;53.194;5.532;2022-10-16T00:40:14;13.30;99.90
51557;DHT22;38766;53.194;5.532;2022-10-16T00:42:39;13.40;99.90
51557;DHT22;38766;53.194;5.532;2022-10-16T00:45:06;13.40;99.90
51557;DHT22;38766;53.194;5.532;2022-10-16T00:47:37;13.30;99.90
51557;DHT22;38766;53.194;5.532;2022-10-16T00:50:12;13.40;99.90
51557;DHT22;38766;53.194;5.532;2022-10-16T00:52:43;13.40;99.90
51557;DHT22;38766;53.194;5.532;2022-10-16T00:55:10;13.40;99.90
51557;DHT22;38766;53.194;5.532;2022-10-16T00:57:36;13.40;99.90
51557;DHT22;38766;53.194;5.532;2022-10-16T01:00:05;13.30;99.90
51557;DHT22;38766;53.194;5.532;2022-10-16T01:02:31;13.50;99.90
51557;DHT22;38766;53.194;5.532;2022-10-16T01:04:57;13.50;99.90
51557;DHT22;38766;53.194;5.532;2022-10-16T01:07:26;13.50;99.90
51557;DHT22;38766;53.194;5.532;2022-10-16T01:10:14;13.50;99.90
51557;DHT22;38766;53.194;5.532;2022-10-16T01:12:50;13.60;99.90
51557;DHT22;38766;53.194;5.532;2022-10-16T01:20:53;13.70;99.90
51557;DHT22;38766;53.194;5.532;2022-10-16T01:29:31;13.70;99.90
51557;DHT22;38766;53.194;5.532;2022-10-16T01:32:09;13.70;99.90
51557;DHT22;38766;53.194;5.532;2022-10-16T01:34:45;13.70;99.90
51557;DHT22;38766;53.194;5.532;2022-10-16T01:37:22;13.80;99.90
51557;DHT22;38766;53.194;5.532;2022-10-16T01:39:52;13.80;99.90
51557;DHT22;38766;53.194;5.532;2022-10-16T01:42:23;13.80;99.90
51557;DHT22;38766;53.194;5.532;2022-10-16T01:44:51;13.80;99.90
51557;DHT22;38766;53.194;5.532;2022-10-16T01:47:21;13.80;99.90
51557;DHT22;38766;53.194;5.532;2022-10-16T01:49:48;13.70;99.90
51557;DHT22;38766;53.194;5.532;2022-10-16T01:52:17;13.60;99.90
51557;DHT22;38766;53.194;5.532;2022-10-16T01:54:47;13.60;99.90
51557;DHT22;38766;53.194;5.532;2022-10-16T01:57:15;13.60;99.90
51557;DHT22;38766;53.194;5.532;2022-10-16T01:59:46;13.60;99.90
51557;DHT22;38766;53.194;5.532;2022-10-16T02:02:13;13.50;99.90
51557;DHT22;38766;53.194;5.532;2022-10-16T02:04:46;13.50;99.90
51557;DHT22;38766;53.194;5.532;2022-10-16T02:07:13;13.40;99.90
51557;DHT22;38766;53.194;5.532;2022-10-16T02:09:39;13.30;99.90
51557;DHT22;38766;53.194;5.532;2022-10-16T02:12:23;13.30;99.90
51557;DHT22;38766;53.194;5.532;2022-10-16T02:14:51;13.30;99.90
51557;DHT22;38766;53.194;5.532;2022-10-16T02:17:17;13.20;99.90
51557;DHT22;38766;53.194;5.532;2022-10-16T02:19:43;13.10;99.90
51557;DHT22;38766;53.194;5.532;2022-10-16T02:22:17;13.10;99.90
51557;DHT22;38766;53.194;5.532;2022-10-16T02:24:56;13.10;99.90
51557;DHT22;38766;53.194;5.532;2022-10-16T02:27:36;13.10;99.90
51557;DHT22;38766;53.194;5.532;2022-10-16T02:32:41;13.00;99.90
51557;DHT22;38766;53.194;5.532;2022-10-16T02:35:08;13.00;99.90
51557;DHT22;38766;53.194;5.532;2022-10-16T02:37:34;12.90;99.90
51557;DHT22;38766;53.194;5.532;2022-10-16T02:40:01;13.00;99.90
51557;DHT22;38766;53.194;5.532;2022-10-16T02:42:33;13.00;99.90
51557;DHT22;38766;53.194;5.532;2022-10-16T02:44:59;12.90;99.90
51557;DHT22;38766;53.194;5.532;2022-10-16T02:47:25;13.00;99.90
51557;DHT22;38766;53.194;5.532;2022-10-16T02:49:50;12.90;99.90
51557;DHT22;38766;53.194;5.532;2022-10-16T02:52:16;12.90;99.90
51557;DHT22;38766;53.194;5.532;2022-10-16T02:54:42;12.90;99.90
51557;DHT22;38766;53.194;5.532;2022-10-16T02:57:07;12.90;99.90
51557;DHT22;38766;53.194;5.532;2022-10-16T02:59:33;12.90;99.90
51557;DHT22;38766;53.194;5.532;2022-10-16T03:01:58;12.90;99.90
51557;DHT22;38766;53.194;5.532;2022-10-16T03:04:24;12.90;99.90
51557;DHT22;38766;53.194;5.532;2022-10-16T03:06:49;13.00;99.90
51557;DHT22;38766;53.194;5.532;2022-10-16T03:09:15;12.80;99.90
51557;DHT22;38766;53.194;5.532;2022-10-16T03:11:41;12.90;99.90
51557;DHT22;38766;53.194;5.532;2022-10-16T03:14:06;12.90;99.90
51557;DHT22;38766;53.194;5.532;2022-10-16T03:16:32;13.00;99.90
51557;DHT22;38766;53.194;5.532;2022-10-16T03:18:58;12.90;99.90
51557;DHT22;38766;53.194;5.532;2022-10-16T03:21:23;12.90;99.90
51557;DHT22;38766;53.194;5.532;2022-10-16T03:23:49;13.00;99.90
51557;DHT22;38766;53.194;5.532;2022-10-16T03:26:15;13.00;99.90
51557;DHT22;38766;53.194;5.532;2022-10-16T03:28:41;12.90;99.90
51557;DHT22;38766;53.194;5.532;2022-10-16T03:31:06;12.90;99.90
51557;DHT22;38766;53.194;5.532;2022-10-16T03:33:32;12.90;99.90
51557;DHT22;38766;53.194;5.532;2022-10-16T03:35:57;12.90;99.90
51557;DHT22;38766;53.194;5.532;2022-10-16T03:38:23;13.00;99.90
51557;DHT22;38766;53.194;5.532;2022-10-16T03:40:48;13.00;99.90
51557;DHT22;38766;53.194;5.532;2022-10-16T03:43:14;12.90;99.90
51557;DHT22;38766;53.194;5.532;2022-10-16T03:45:39;13.00;99.90
51557;DHT22;38766;53.194;5.532;2022-10-16T03:48:05;13.00;99.90
51557;DHT22;38766;53.194;5.532;2022-10-16T03:50:31;13.00;99.90
51557;DHT22;38766;53.194;5.532;2022-10-16T03:52:56;13.00;99.90
51557;DHT22;38766;53.194;5.532;2022-10-16T03:55:22;13.00;99.90
51557;DHT22;38766;53.194;5.532;2022-10-16T03:57:48;13.10;99.90
51557;DHT22;38766;53.194;5.532;2022-10-16T04:00:13;13.20;99.90
51557;DHT22;38766;53.194;5.532;2022-10-16T04:02:39;13.10;99.90
51557;DHT22;38766;53.194;5.532;2022-10-16T04:05:07;13.20;99.90
51557;DHT22;38766;53.194;5.532;2022-10-16T04:07:32;13.20;99.90
51557;DHT22;38766;53.194;5.532;2022-10-16T04:09:58;13.20;99.90
51557;DHT22;38766;53.194;5.532;2022-10-16T04:12:25;13.20;99.90
51557;DHT22;38766;53.194;5.532;2022-10-16T04:14:51;13.10;99.90
51557;DHT22;38766;53.194;5.532;2022-10-16T04:17:16;13.20;99.90
51557;DHT22;38766;53.194;5.532;2022-10-16T04:19:42;13.20;99.90
51557;DHT22;38766;53.194;5.532;2022-10-16T04:22:08;13.10;99.90
51557;DHT22;38766;53.194;5.532;2022-10-16T04:24:33;13.10;99.90
51557;DHT22;38766;53.194;5.532;2022-10-16T04:26:59;13.10;99.90
51557;DHT22;38766;53.194;5.532;2022-10-16T04:29:25;13.10;99.90
51557;DHT22;38766;53.194;5.532;2022-10-16T04:31:50;13.00;99.90
51557;DHT22;38766;53.194;5.532;2022-10-16T04:34:16;13.10;99.90
51557;DHT22;38766;53.194;5.532;2022-10-16T04:36:41;13.10;99.90
51557;DHT22;38766;53.194;5.532;2022-10-16T04:39:07;13.10;99.90
51557;DHT22;38766;53.194;5.532;2022-10-16T04:41:33;13.10;99.90
51557;DHT22;38766;53.194;5.532;2022-10-16T04:43:58;13.00;99.90
51557;DHT22;38766;53.194;5.532;2022-10-16T04:46:24;13.10;99.90
51557;DHT22;38766;53.194;5.532;2022-10-16T04:48:49;13.10;99.90
51557;DHT22;38766;53.194;5.532;2022-10-16T04:51:15;13.10;99.90
51557;DHT22;38766;53.194;5.532;2022-10-16T04:53:40;13.00;99.90
51557;DHT22;38766;53.194;5.532;2022-10-16T04:56:06;13.10;99.90
51557;DHT22;38766;53.194;5.532;2022-10-16T04:58:32;13.10;99.90
51557;DHT22;38766;53.194;5.532;2022-10-16T05:00:58;13.00;99.90
51557;DHT22;38766;53.194;5.532;2022-10-16T05:03:23;13.10;99.90
51557;DHT22;38766;53.194;5.532;2022-10-16T05:05:49;13.00;99.90
51557;DHT22;38766;53.194;5.532;2022-10-16T05:08:16;13.00;99.90
51557;DHT22;38766;53.194;5.532;2022-10-16T05:10:42;13.10;99.90
51557;DHT22;38766;53.194;5.532;2022-10-16T05:13:09;13.10;99.90
51557;DHT22;38766;53.194;5.532;2022-10-16T05:15:34;13.10;99.90
51557;DHT22;38766;53.194;5.532;2022-10-16T05:18:00;13.00;99.90
51557;DHT22;38766;53.194;5.532;2022-10-16T05:20:26;13.10;99.90
51557;DHT22;38766;53.194;5.532;2022-10-16T05:22:51;13.10;99.90
51557;DHT22;38766;53.194;5.532;2022-10-16T05:25:17;13.10;99.90
51557;DHT22;38766;53.194;5.532;2022-10-16T05:27:43;13.10;99.90
51557;DHT22;38766;53.194;5.532;2022-10-16T05:30:08;13.10;99.90
51557;DHT22;38766;53.194;5.532;2022-10-16T05:32:34;13.10;99.90
51557;DHT22;38766;53.194;5.532;2022-10-16T05:35:00;13.00;99.90
51557;DHT22;38766;53.194;5.532;2022-10-16T05:37:27;13.00;99.90
51557;DHT22;38766;53.194;5.532;2022-10-16T05:39:53;13.00;99.90
51557;DHT22;38766;53.194;5.532;2022-10-16T05:42:18;13.00;99.90
51557;DHT22;38766;53.194;5.532;2022-10-16T05:44:44;13.00;99.90
51557;DHT22;38766;53.194;5.532;2022-10-16T05:47:10;13.00;99.90
51557;DHT22;38766;53.194;5.532;2022-10-16T05:49:37;12.80;99.90
51557;DHT22;38766;53.194;5.532;2022-10-16T05:52:03;12.90;99.90
51557;DHT22;38766;53.194;5.532;2022-10-16T05:54:28;12.90;99.90
51557;DHT22;38766;53.194;5.532;2022-10-16T05:56:54;12.90;99.90
51557;DHT22;38766;53.194;5.532;2022-10-16T05:59:19;13.00;99.90
51557;DHT22;38766;53.194;5.532;2022-10-16T06:01:45;12.90;99.90
51557;DHT22;38766;53.194;5.532;2022-10-16T06:04:11;12.90;99.90
51557;DHT22;38766;53.194;5.532;2022-10-16T06:06:36;12.90;99.90
51557;DHT22;38766;53.194;5.532;2022-10-16T06:09:02;12.90;99.90
51557;DHT22;38766;53.194;5.532;2022-10-16T06:11:31;12.90;99.90
51557;DHT22;38766;53.194;5.532;2022-10-16T06:13:58;12.90;99.90
51557;DHT22;38766;53.194;5.532;2022-10-16T06:16:27;12.90;99.90
51557;DHT22;38766;53.194;5.532;2022-10-16T06:18:54;12.90;99.90
51557;DHT22;38766;53.194;5.532;2022-10-16T06:21:23;13.00;99.90
51557;DHT22;38766;53.194;5.532;2022-10-16T06:23:53;12.90;99.90
51557;DHT22;38766;53.194;5.532;2022-10-16T06:26:21;13.00;99.90
51557;DHT22;38766;53.194;5.532;2022-10-16T06:28:47;12.90;99.90
51557;DHT22;38766;53.194;5.532;2022-10-16T06:31:13;12.90;99.90
51557;DHT22;38766;53.194;5.532;2022-10-16T06:33:39;12.90;99.90
51557;DHT22;38766;53.194;5.532;2022-10-16T06:36:07;13.00;99.90
51557;DHT22;38766;53.194;5.532;2022-10-16T06:38:33;13.00;99.90
51557;DHT22;38766;53.194;5.532;2022-10-16T06:40:59;13.00;99.90
51557;DHT22;38766;53.194;5.532;2022-10-16T06:43:25;13.00;99.90
51557;DHT22;38766;53.194;5.532;2022-10-16T06:45:55;13.00;99.90
51557;DHT22;38766;53.194;5.532;2022-10-16T06:48:21;13.00;99.90
51557;DHT22;38766;53.194;5.532;2022-10-16T06:53:27;13.00;99.90
51557;DHT22;38766;53.194;5.532;2022-10-16T06:55:53;13.10;99.90
51557;DHT22;38766;53.194;5.532;2022-10-16T06:58:18;13.10;99.90
51557;DHT22;38766;53.194;5.532;2022-10-16T07:00:44;13.10;99.90
51557;DHT22;38766;53.194;5.532;2022-10-16T07:03:09;13.20;99.90
51557;DHT22;38766;53.194;5.532;2022-10-16T07:05:39;13.10;99.90
51557;DHT22;38766;53.194;5.532;2022-10-16T07:08:05;13.10;99.90
51557;DHT22;38766;53.194;5.532;2022-10-16T07:10:31;13.10;99.90
51557;DHT22;38766;53.194;5.532;2022-10-16T07:12:57;13.20;99.90
51557;DHT22;38766;53.194;5.532;2022-10-16T07:15:24;13.20;99.90
51557;DHT22;38766;53.194;5.532;2022-10-16T07:17:50;13.20;99.90
51557;DHT22;38766;53.194;5.532;2022-10-16T07:20:15;13.30;99.90
51557;DHT22;38766;53.194;5.532;2022-10-16T07:22:41;13.30;99.90
51557;DHT22;38766;53.194;5.532;2022-10-16T07:25:07;13.40;99.90
51557;DHT22;38766;53.194;5.532;2022-10-16T07:27:33;13.40;99.90
51557;DHT22;38766;53.194;5.532;2022-10-16T07:29:59;13.40;99.90
51557;DHT22;38766;53.194;5.532;2022-10-16T07:32:25;13.40;99.90
51557;DHT22;38766;53.194;5.532;2022-10-16T07:34:51;13.40;99.90
51557;DHT22;38766;53.194;5.532;2022-10-16T07:37:17;13.40;99.90
51557;DHT22;38766;53.194;5.532;2022-10-16T07:39:43;13.50;99.90
51557;DHT22;38766;53.194;5.532;2022-10-16T07:42:08;13.50;99.90
51557;DHT22;38766;53.194;5.532;2022-10-16T07:44:34;13.50;99.90
51557;DHT22;38766;53.194;5.532;2022-10-16T07:47:00;13.50;99.90
51557;DHT22;38766;53.194;5.532;2022-10-16T07:49:25;13.50;99.90
51557;DHT22;38766;53.194;5.532;2022-10-16T07:51:51;13.50;99.90
51557;DHT22;38766;53.194;5.532;2022-10-16T07:54:16;13.60;99.90
51557;DHT22;38766;53.194;5.532;2022-10-16T07:56:42;13.60;99.90
51557;DHT22;38766;53.194;5.532;2022-10-16T07:59:08;13.60;99.90
51557;DHT22;38766;53.194;5.532;2022-10-16T08:01:33;13.60;99.90
51557;DHT22;38766;53.194;5.532;2022-10-16T08:03:59;13.60;99.90
51557;DHT22;38766;53.194;5.532;2022-10-16T08:06:24;13.60;99.90
51557;DHT22;38766;53.194;5.532;2022-10-16T08:08:50;13.70;99.90
51557;DHT22;38766;53.194;5.532;2022-10-16T08:11:16;13.60;99.90
51557;DHT22;38766;53.194;5.532;2022-10-16T08:13:42;13.70;99.90
51557;DHT22;38766;53.194;5.532;2022-10-16T08:16:08;13.80;99.90
51557;DHT22;38766;53.194;5.532;2022-10-16T08:18:36;13.80;99.90
51557;DHT22;38766;53.194;5.532;2022-10-16T08:21:03;13.80;99.90
51557;DHT22;38766;53.194;5.532;2022-10-16T08:23:29;14.00;99.90
51557;DHT22;38766;53.194;5.532;2022-10-16T08:25:56;14.10;99.90
51557;DHT22;38766;53.194;5.532;2022-10-16T08:28:27;14.30;99.90
51557;DHT22;38766;53.194;5.532;2022-10-16T08:30:52;14.40;99.90
51557;DHT22;38766;53.194;5.532;2022-10-16T08:33:18;14.60;99.90
51557;DHT22;38766;53.194;5.532;2022-10-16T08:35:53;14.70;99.90
51557;DHT22;38766;53.194;5.532;2022-10-16T08:38:20;14.90;99.90
51557;DHT22;38766;53.194;5.532;2022-10-16T08:40:46;15.10;99.90
51557;DHT22;38766;53.194;5.532;2022-10-16T08:46:10;15.40;99.90
51557;DHT22;38766;53.194;5.532;2022-10-16T08:51:08;15.70;99.90
51557;DHT22;38766;53.194;5.532;2022-10-16T08:56:54;16.00;99.90
51557;DHT22;38766;53.194;5.532;2022-10-16T08:59:20;16.00;99.90
51557;DHT22;38766;53.194;5.532;2022-10-16T09:01:49;16.10;99.90
51557;DHT22;38766;53.194;5.532;2022-10-16T09:07:26;16.40;99.90
51557;DHT22;38766;53.194;5.532;2022-10-16T09:10:43;16.50;99.90
51557;DHT22;38766;53.194;5.532;2022-10-16T09:13:14;16.50;99.90
51557;DHT22;38766;53.194;5.532;2022-10-16T09:21:16;17.10;99.90
51557;DHT22;38766;53.194;5.532;2022-10-16T09:23:44;17.30;99.90
51557;DHT22;38766;53.194;5.532;2022-10-16T09:26:13;17.50;99.90
51557;DHT22;38766;53.194;5.532;2022-10-16T09:28:39;17.60;99.90
51557;DHT22;38766;53.194;5.532;2022-10-16T09:31:05;17.70;99.90
51557;DHT22;38766;53.194;5.532;2022-10-16T09:33:35;17.60;99.90
51557;DHT22;38766;53.194;5.532;2022-10-16T09:36:04;17.60;99.90
51557;DHT22;38766;53.194;5.532;2022-10-16T09:38:35;17.60;99.90
51557;DHT22;38766;53.194;5.532;2022-10-16T09:41:37;17.60;99.90
51557;DHT22;38766;53.194;5.532;2022-10-16T09:44:06;17.70;99.90
51557;DHT22;38766;53.194;5.532;2022-10-16T09:46:40;17.90;99.90
51557;DHT22;38766;53.194;5.532;2022-10-16T09:49:22;18.00;99.90
51557;DHT22;38766;53.194;5.532;2022-10-16T09:51:49;18.00;99.90
51557;DHT22;38766;53.194;5.532;2022-10-16T09:54:20;18.00;99.90
51557;DHT22;38766;53.194;5.532;2022-10-16T09:56:46;18.20;99.90
51557;DHT22;38766;53.194;5.532;2022-10-16T09:59:16;18.10;99.90
51557;DHT22;38766;53.194;5.532;2022-10-16T10:04:08;18.10;99.90
51557;DHT22;38766;53.194;5.532;2022-10-16T10:06:41;18.20;99.90
51557;DHT22;38766;53.194;5.532;2022-10-16T10:11:49;18.20;99.90
51557;DHT22;38766;53.194;5.532;2022-10-16T10:16:51;18.30;99.90
51557;DHT22;38766;53.194;5.532;2022-10-16T10:19:23;18.30;99.90
51557;DHT22;38766;53.194;5.532;2022-10-16T10:21:50;18.30;99.90
51557;DHT22;38766;53.194;5.532;2022-10-16T10:24:18;18.40;99.90
51557;DHT22;38766;53.194;5.532;2022-10-16T10:27:06;18.40;99.90
51557;DHT22;38766;53.194;5.532;2022-10-16T10:29:44;18.50;99.90
51557;DHT22;38766;53.194;5.532;2022-10-16T10:32:42;18.70;99.90
51557;DHT22;38766;53.194;5.532;2022-10-16T10:35:21;18.90;99.90
51557;DHT22;38766;53.194;5.532;2022-10-16T10:38:11;19.00;99.90
51557;DHT22;38766;53.194;5.532;2022-10-16T10:49:12;19.40;99.90
51557;DHT22;38766;53.194;5.532;2022-10-16T10:57:02;19.60;99.90
51557;DHT22;38766;53.194;5.532;2022-10-16T10:59:32;19.70;99.90
51557;DHT22;38766;53.194;5.532;2022-10-16T11:04:46;19.80;99.90
51557;DHT22;38766;53.194;5.532;2022-10-16T11:07:28;19.80;99.90
51557;DHT22;38766;53.194;5.532;2022-10-16T11:09:59;19.90;99.90
51557;DHT22;38766;53.194;5.532;2022-10-16T11:12:46;20.00;99.90
51557;DHT22;38766;53.194;5.532;2022-10-16T11:15:30;19.90;99.90
51557;DHT22;38766;53.194;5.532;2022-10-16T11:18:18;20.00;99.90
51557;DHT22;38766;53.194;5.532;2022-10-16T11:20:50;20.00;99.90
51557;DHT22;38766;53.194;5.532;2022-10-16T11:23:28;20.00;99.90
51557;DHT22;38766;53.194;5.532;2022-10-16T11:25:59;20.00;99.90
51557;DHT22;38766;53.194;5.532;2022-10-16T11:28:32;20.00;99.90
51557;DHT22;38766;53.194;5.532;2022-10-16T11:31:36;20.10;99.90
51557;DHT22;38766;53.194;5.532;2022-10-16T11:34:24;20.10;99.90
51557;DHT22;38766;53.194;5.532;2022-10-16T11:37:26;20.10;99.90
51557;DHT22;38766;53.194;5.532;2022-10-16T11:39:54;20.10;99.90
51557;DHT22;38766;53.194;5.532;2022-10-16T11:42:36;20.10;99.90
51557;DHT22;38766;53.194;5.532;2022-10-16T11:45:33;20.10;99.90
51557;DHT22;38766;53.194;5.532;2022-10-16T11:51:09;20.00;99.90
51557;DHT22;38766;53.194;5.532;2022-10-16T11:54:35;20.00;99.90
51557;DHT22;38766;53.194;5.532;2022-10-16T11:56:38;19.90;99.90
51557;DHT22;38766;53.194;5.532;2022-10-16T12:04:51;19.90;99.90
51557;DHT22;38766;53.194;5.532;2022-10-16T12:07:28;19.90;99.90
51557;DHT22;38766;53.194;5.532;2022-10-16T12:09:57;19.90;99.90
51557;DHT22;38766;53.194;5.532;2022-10-16T12:15:15;19.90;99.90
51557;DHT22;38766;53.194;5.532;2022-10-16T12:17:43;19.90;99.90
51557;DHT22;38766;53.194;5.532;2022-10-16T12:22:41;19.90;99.90
51557;DHT22;38766;53.194;5.532;2022-10-16T12:25:28;19.90;99.90
51557;DHT22;38766;53.194;5.532;2022-10-16T12:27:57;19.90;99.90
51557;DHT22;38766;53.194;5.532;2022-10-16T12:30:25;19.90;99.90
51557;DHT22;38766;53.194;5.532;2022-10-16T12:32:56;19.90;99.90
51557;DHT22;38766;53.194;5.532;2022-10-16T12:35:30;19.80;99.90
51557;DHT22;38766;53.194;5.532;2022-10-16T12:38:15;19.90;99.90
51557;DHT22;38766;53.194;5.532;2022-10-16T12:40:43;19.90;99.90
51557;DHT22;38766;53.194;5.532;2022-10-16T12:43:25;19.90;99.90
51557;DHT22;38766;53.194;5.532;2022-10-16T12:48:36;19.80;99.70
51557;DHT22;38766;53.194;5.532;2022-10-16T12:54:05;19.80;99.90
51557;DHT22;38766;53.194;5.532;2022-10-16T12:56:56;19.70;99.90
51557;DHT22;38766;53.194;5.532;2022-10-16T13:05:18;19.50;99.90
51557;DHT22;38766;53.194;5.532;2022-10-16T13:13:46;19.30;99.90
51557;DHT22;38766;53.194;5.532;2022-10-16T13:16:35;19.30;99.90
51557;DHT22;38766;53.194;5.532;2022-10-16T13:19:16;19.20;99.90
51557;DHT22;38766;53.194;5.532;2022-10-16T13:22:11;19.10;99.90
51557;DHT22;38766;53.194;5.532;2022-10-16T13:25:02;19.10;99.90
51557;DHT22;38766;53.194;5.532;2022-10-16T13:27:54;19.00;99.90
51557;DHT22;38766;53.194;5.532;2022-10-16T13:30:24;18.90;99.90
51557;DHT22;38766;53.194;5.532;2022-10-16T13:33:02;18.80;99.90
51557;DHT22;38766;53.194;5.532;2022-10-16T13:35:31;18.60;99.90
51557;DHT22;38766;53.194;5.532;2022-10-16T13:38:25;18.50;99.90
51557;DHT22;38766;53.194;5.532;2022-10-16T13:40:59;18.50;99.90
51557;DHT22;38766;53.194;5.532;2022-10-16T13:43:36;18.40;99.90
51557;DHT22;38766;53.194;5.532;2022-10-16T13:46:12;18.40;99.90
51557;DHT22;38766;53.194;5.532;2022-10-16T13:48:38;18.40;99.90
51557;DHT22;38766;53.194;5.532;2022-10-16T13:51:14;18.40;99.90
51557;DHT22;38766;53.194;5.532;2022-10-16T13:53:41;18.40;99.90
51557;DHT22;38766;53.194;5.532;2022-10-16T13:56:14;18.30;99.90
51557;DHT22;38766;53.194;5.532;2022-10-16T13:58:39;18.40;99.90
51557;DHT22;38766;53.194;5.532;2022-10-16T14:01:25;18.40;99.90
51557;DHT22;38766;53.194;5.532;2022-10-16T14:03:52;18.30;99.90
51557;DHT22;38766;53.194;5.532;2022-10-16T14:06:21;18.40;99.90
51557;DHT22;38766;53.194;5.532;2022-10-16T14:09:00;18.30;99.90
51557;DHT22;38766;53.194;5.532;2022-10-16T14:11:27;18.30;99.90
51557;DHT22;38766;53.194;5.532;2022-10-16T14:13:54;18.30;99.90
51557;DHT22;38766;53.194;5.532;2022-10-16T14:16:23;18.30;99.90
51557;DHT22;38766;53.194;5.532;2022-10-16T14:18:59;18.30;99.90
51557;DHT22;38766;53.194;5.532;2022-10-16T14:21:25;18.20;99.90
51557;DHT22;38766;53.194;5.532;2022-10-16T14:23:52;18.10;99.90
51557;DHT22;38766;53.194;5.532;2022-10-16T14:26:20;18.00;99.90
51557;DHT22;38766;53.194;5.532;2022-10-16T14:28:49;17.90;99.90
51557;DHT22;38766;53.194;5.532;2022-10-16T14:31:27;17.80;99.90
51557;DHT22;38766;53.194;5.532;2022-10-16T14:33:53;17.70;99.90
51557;DHT22;38766;53.194;5.532;2022-10-16T14:36:19;17.70;99.90
51557;DHT22;38766;53.194;5.532;2022-10-16T14:39:06;17.50;99.90
51557;DHT22;38766;53.194;5.532;2022-10-16T14:41:46;17.50;99.90
51557;DHT22;38766;53.194;5.532;2022-10-16T14:44:12;17.40;99.90
51557;DHT22;38766;53.194;5.532;2022-10-16T14:46:40;17.30;99.90
51557;DHT22;38766;53.194;5.532;2022-10-16T14:51:36;17.20;99.90
51557;DHT22;38766;53.194;5.532;2022-10-16T14:54:03;17.10;99.90
51557;DHT22;38766;53.194;5.532;2022-10-16T14:59:38;17.00;99.90
51557;DHT22;38766;53.194;5.532;2022-10-16T15:02:20;16.90;99.90
51557;DHT22;38766;53.194;5.532;2022-10-16T15:04:48;16.90;99.90
51557;DHT22;38766;53.194;5.532;2022-10-16T15:07:14;16.80;99.90
51557;DHT22;38766;53.194;5.532;2022-10-16T15:09:39;16.80;99.90
51557;DHT22;38766;53.194;5.532;2022-10-16T15:12:05;16.70;99.90
51557;DHT22;38766;53.194;5.532;2022-10-16T15:14:31;16.80;99.90
51557;DHT22;38766;53.194;5.532;2022-10-16T15:16:57;16.70;99.90
51557;DHT22;38766;53.194;5.532;2022-10-16T15:19:22;16.70;99.90
51557;DHT22;38766;53.194;5.532;2022-10-16T15:21:48;16.60;99.90
51557;DHT22;38766;53.194;5.532;2022-10-16T15:24:15;16.60;99.90
51557;DHT22;38766;53.194;5.532;2022-10-16T15:26:41;16.50;99.90
51557;DHT22;38766;53.194;5.532;2022-10-16T15:29:07;16.40;99.90
51557;DHT22;38766;53.194;5.532;2022-10-16T15:31:33;16.50;99.90
51557;DHT22;38766;53.194;5.532;2022-10-16T15:33:59;16.40;99.90
51557;DHT22;38766;53.194;5.532;2022-10-16T15:36:31;16.40;99.90
51557;DHT22;38766;53.194;5.532;2022-10-16T15:39:00;16.40;99.90
51557;DHT22;38766;53.194;5.532;2022-10-16T15:41:26;16.40;99.90
51557;DHT22;38766;53.194;5.532;2022-10-16T15:43:51;16.30;99.90
51557;DHT22;38766;53.194;5.532;2022-10-16T15:46:19;16.30;99.90
51557;DHT22;38766;53.194;5.532;2022-10-16T15:48:46;16.20;99.90
51557;DHT22;38766;53.194;5.532;2022-10-16T15:51:12;16.20;99.90
51557;DHT22;38766;53.194;5.532;2022-10-16T15:53:38;16.20;99.90
51557;DHT22;38766;53.194;5.532;2022-10-16T15:56:08;16.10;99.90
51557;DHT22;38766;53.194;5.532;2022-10-16T15:58:34;16.10;99.90
51557;DHT22;38766;53.194;5.532;2022-10-16T16:01:00;16.10;99.90
51557;DHT22;38766;53.194;5.532;2022-10-16T16:03:27;16.10;99.90
51557;DHT22;38766;53.194;5.532;2022-10-16T16:05:53;16.10;99.90
51557;DHT22;38766;53.194;5.532;2022-10-16T16:08:18;16.10;99.90
51557;DHT22;38766;53.194;5.532;2022-10-16T16:10:44;16.00;99.90
51557;DHT22;38766;53.194;5.532;2022-10-16T16:13:10;16.00;99.90
51557;DHT22;38766;53.194;5.532;2022-10-16T16:15:39;15.90;99.90
51557;DHT22;38766;53.194;5.532;2022-10-16T16:18:05;15.90;99.90
51557;DHT22;38766;53.194;5.532;2022-10-16T16:20:31;15.90;99.90
51557;DHT22;38766;53.194;5.532;2022-10-16T16:22:57;15.90;99.90
51557;DHT22;38766;53.194;5.532;2022-10-16T16:25:22;15.80;99.90
51557;DHT22;38766;53.194;5.532;2022-10-16T16:27:48;15.80;99.90
51557;DHT22;38766;53.194;5.532;2022-10-16T16:30:13;15.80;99.90
51557;DHT22;38766;53.194;5.532;2022-10-16T16:32:39;15.80;99.90
51557;DHT22;38766;53.194;5.532;2022-10-16T16:35:05;15.70;99.90
51557;DHT22;38766;53.194;5.532;2022-10-16T16:37:31;15.70;99.90
51557;DHT22;38766;53.194;5.532;2022-10-16T16:39:57;15.70;99.90
51557;DHT22;38766;53.194;5.532;2022-10-16T16:42:25;15.60;99.90
51557;DHT22;38766;53.194;5.532;2022-10-16T16:44:51;15.60;99.90
51557;DHT22;38766;53.194;5.532;2022-10-16T16:47:16;15.60;99.90
51557;DHT22;38766;53.194;5.532;2022-10-16T16:49:42;15.60;99.90
51557;DHT22;38766;53.194;5.532;2022-10-16T16:52:08;15.50;99.90
51557;DHT22;38766;53.194;5.532;2022-10-16T16:54:33;15.50;99.90
51557;DHT22;38766;53.194;5.532;2022-10-16T16:56:59;15.40;99.90
51557;DHT22;38766;53.194;5.532;2022-10-16T16:59:25;15.40;99.90
51557;DHT22;38766;53.194;5.532;2022-10-16T17:01:50;15.40;99.90
51557;DHT22;38766;53.194;5.532;2022-10-16T17:04:16;15.40;99.90
51557;DHT22;38766;53.194;5.532;2022-10-16T17:06:42;15.40;99.90
51557;DHT22;38766;53.194;5.532;2022-10-16T17:09:09;15.30;99.90
51557;DHT22;38766;53.194;5.532;2022-10-16T17:11:35;15.30;99.90
51557;DHT22;38766;53.194;5.532;2022-10-16T17:14:01;15.20;99.90
51557;DHT22;38766;53.194;5.532;2022-10-16T17:16:34;15.20;99.90
51557;DHT22;38766;53.194;5.532;2022-10-16T17:19:02;15.20;99.90